createdAt,value
2019-03-08T00:01:58.038Z,8.70
2019-03-08T00:04:28.195Z,8.80
2019-03-08T00:06:59.277Z,8.80
2019-03-08T00:09:32.327Z,8.70
2019-03-08T00:12:04.110Z,8.60
2019-03-08T00:14:34.310Z,8.60
2019-03-08T00:17:04.550Z,8.40
2019-03-08T00:19:34.818Z,8.40
2019-03-08T00:22:11.437Z,8.40
2019-03-08T00:24:41.690Z,8.60
2019-03-08T00:27:11.894Z,8.80
2019-03-08T00:29:42.926Z,8.90
2019-03-08T00:32:15.111Z,8.90
2019-03-08T00:34:45.278Z,8.90
2019-03-08T00:37:15.602Z,9.00
2019-03-08T00:39:45.854Z,9.00
2019-03-08T00:42:16.053Z,8.90
2019-03-08T00:44:46.275Z,8.80
2019-03-08T00:47:16.497Z,8.70
2019-03-08T00:49:46.769Z,8.70
2019-03-08T00:52:16.941Z,8.60
2019-03-08T00:54:47.281Z,8.60
2019-03-08T00:57:18.404Z,8.50
2019-03-08T00:59:48.905Z,8.40
2019-03-08T01:02:20.401Z,8.20
2019-03-08T01:04:50.600Z,8.10
2019-03-08T01:07:20.791Z,8.00
2019-03-08T01:09:51.043Z,8.00
2019-03-08T01:12:21.488Z,8.00
2019-03-08T01:14:51.716Z,8.00
2019-03-08T01:17:22.200Z,7.90
2019-03-08T01:19:52.387Z,7.70
2019-03-08T01:22:22.588Z,7.70
2019-03-08T01:24:52.832Z,7.70
2019-03-08T01:27:23.054Z,7.80
2019-03-08T01:29:53.495Z,8.00
2019-03-08T01:32:23.669Z,8.10
2019-03-08T01:34:53.774Z,8.00
2019-03-08T01:37:24.039Z,7.80
2019-03-08T01:39:54.317Z,7.60
2019-03-08T01:42:24.526Z,7.40
2019-03-08T01:44:54.654Z,7.30
2019-03-08T01:47:25.002Z,7.10
2019-03-08T01:49:55.169Z,7.00
2019-03-08T01:52:25.326Z,6.90
2019-03-08T01:54:55.639Z,6.70
2019-03-08T01:57:25.930Z,6.60
2019-03-08T01:59:57.151Z,6.60
2019-03-08T02:02:27.442Z,6.60
2019-03-08T02:04:57.772Z,6.60
2019-03-08T02:07:27.794Z,6.70
2019-03-08T02:09:58.121Z,6.70
2019-03-08T02:12:28.463Z,6.60
2019-03-08T02:14:58.627Z,6.60
2019-03-08T02:17:28.754Z,6.60
2019-03-08T02:19:58.945Z,6.50
2019-03-08T02:22:29.524Z,6.40
2019-03-08T02:24:59.779Z,6.30
2019-03-08T02:27:30.011Z,6.20
2019-03-08T02:30:00.414Z,6.10
2019-03-08T02:32:30.769Z,6.10
2019-03-08T02:35:01.246Z,6.10
2019-03-08T02:37:31.446Z,6.10
2019-03-08T02:40:01.791Z,6.00
2019-03-08T02:42:32.142Z,5.90
2019-03-08T02:45:02.345Z,5.80
2019-03-08T02:47:32.914Z,5.70
2019-03-08T02:50:03.115Z,5.50
2019-03-08T02:52:33.358Z,5.60
2019-03-08T02:55:03.586Z,5.60
2019-03-08T02:57:33.738Z,5.50
2019-03-08T03:00:04.011Z,5.30
2019-03-08T03:02:35.180Z,5.30
2019-03-08T03:05:05.893Z,5.40
2019-03-08T03:07:36.098Z,5.40
2019-03-08T03:10:06.801Z,5.30
2019-03-08T03:12:37.255Z,5.20
2019-03-08T03:15:08.185Z,5.20
2019-03-08T03:17:38.470Z,5.10
2019-03-08T03:20:08.905Z,5.10
2019-03-08T03:22:39.161Z,5.00
2019-03-08T03:25:09.455Z,5.00
2019-03-08T03:27:39.725Z,4.80
2019-03-08T03:30:10.246Z,4.70
2019-03-08T03:32:40.481Z,4.70
2019-03-08T03:35:10.723Z,4.50
2019-03-08T03:37:40.925Z,4.20
2019-03-08T03:40:11.894Z,4.00
2019-03-08T03:42:42.078Z,4.00
2019-03-08T03:45:12.650Z,4.00
2019-03-08T03:47:42.909Z,4.20
2019-03-08T03:50:13.415Z,4.50
2019-03-08T03:52:43.926Z,4.60
2019-03-08T03:55:14.738Z,4.80
2019-03-08T03:57:44.939Z,4.90
2019-03-08T04:00:16.460Z,4.90
2019-03-08T04:02:46.711Z,4.80
2019-03-08T04:05:18.062Z,4.70
2019-03-08T04:07:48.413Z,4.70
2019-03-08T04:10:19.313Z,4.80
2019-03-08T04:12:49.488Z,4.80
2019-03-08T04:15:19.731Z,4.80
2019-03-08T04:17:50.297Z,4.70
2019-03-08T04:20:20.510Z,4.70
2019-03-08T04:22:50.697Z,4.80
2019-03-08T04:25:20.956Z,4.80
2019-03-08T04:27:51.231Z,4.80
2019-03-08T04:30:21.846Z,4.80
2019-03-08T04:32:52.192Z,4.70
2019-03-08T04:35:22.409Z,4.60
2019-03-08T04:37:52.619Z,4.60
2019-03-08T04:40:22.943Z,4.50
2019-03-08T04:42:53.206Z,4.50
2019-03-08T04:45:23.377Z,4.50
2019-03-08T04:47:53.615Z,4.50
2019-03-08T04:50:23.871Z,4.50
2019-03-08T04:52:54.046Z,4.50
2019-03-08T04:55:24.326Z,4.50
2019-03-08T04:57:54.549Z,4.50
2019-03-08T05:00:24.754Z,4.60
2019-03-08T05:02:55.047Z,4.80
2019-03-08T05:05:25.263Z,4.70
2019-03-08T05:07:56.397Z,4.70
2019-03-08T05:10:26.779Z,4.60
2019-03-08T05:12:56.954Z,4.60
2019-03-08T05:15:27.098Z,4.50
2019-03-08T05:17:58.508Z,4.40
2019-03-08T05:20:28.894Z,4.30
2019-03-08T05:22:59.401Z,4.20
2019-03-08T05:25:29.679Z,4.20
2019-03-08T05:28:00.022Z,4.10
2019-03-08T05:30:30.211Z,4.00
2019-03-08T05:33:00.453Z,3.90
2019-03-08T05:35:30.615Z,3.90
2019-03-08T05:38:00.802Z,3.80
2019-03-08T05:40:31.229Z,3.80
2019-03-08T05:43:01.482Z,3.80
2019-03-08T05:45:31.830Z,4.00
2019-03-08T05:48:02.026Z,4.20
2019-03-08T05:50:32.206Z,4.10
2019-03-08T05:53:02.367Z,4.10
2019-03-08T05:55:32.590Z,4.20
2019-03-08T05:58:02.813Z,4.00
2019-03-08T06:00:34.882Z,4.00
2019-03-08T06:03:05.361Z,4.30
2019-03-08T06:05:35.520Z,4.40
2019-03-08T06:08:05.708Z,4.30
2019-03-08T06:10:37.015Z,4.20
2019-03-08T06:13:08.043Z,4.20
2019-03-08T06:15:38.257Z,4.10
2019-03-08T06:18:08.509Z,4.10
2019-03-08T06:20:38.646Z,4.20
2019-03-08T06:23:10.048Z,4.20
2019-03-08T06:25:40.289Z,4.30
2019-03-08T06:28:10.824Z,4.50
2019-03-08T06:30:41.682Z,4.50
2019-03-08T06:33:13.674Z,4.50
2019-03-08T06:35:43.921Z,4.70
2019-03-08T06:38:14.200Z,4.70
2019-03-08T06:40:44.460Z,4.60
2019-03-08T06:43:15.002Z,5.00
2019-03-08T06:45:45.478Z,5.30
2019-03-08T06:48:15.874Z,5.60
2019-03-08T06:50:46.077Z,5.90
2019-03-08T06:53:16.442Z,6.00
2019-03-08T06:55:47.794Z,6.10
2019-03-08T06:58:28.243Z,6.20
2019-03-08T07:01:11.481Z,6.20
2019-03-08T07:03:42.428Z,6.30
2019-03-08T07:06:12.628Z,6.30
2019-03-08T07:08:42.974Z,6.40
2019-03-08T07:11:14.113Z,6.50
2019-03-08T07:13:44.393Z,6.50
2019-03-08T07:16:14.951Z,6.60
2019-03-08T07:18:45.546Z,6.70
2019-03-08T07:21:26.964Z,6.80
2019-03-08T07:24:02.898Z,6.90
2019-03-08T07:27:08.784Z,6.90
2019-03-08T07:29:55.682Z,7.10
2019-03-08T07:32:43.737Z,7.30
2019-03-08T07:35:33.927Z,7.40
2019-03-08T07:38:21.658Z,7.60
2019-03-08T07:41:01.812Z,7.80
2019-03-08T07:43:40.317Z,7.90
2019-03-08T07:46:29.902Z,8.00
2019-03-08T07:49:22.459Z,8.20
2019-03-08T07:52:12.021Z,8.30
2019-03-08T07:55:16.547Z,8.40
2019-03-08T07:58:25.275Z,8.60
2019-03-08T08:01:20.375Z,8.70
2019-03-08T08:04:04.103Z,8.70
2019-03-08T08:06:52.051Z,8.90
2019-03-08T08:09:28.415Z,9.00
2019-03-08T08:12:11.728Z,9.10
2019-03-08T08:14:57.425Z,9.20
2019-03-08T08:17:37.580Z,9.40
2019-03-08T08:20:31.353Z,9.40
2019-03-08T08:23:34.008Z,9.40
2019-03-08T08:26:26.684Z,9.50
2019-03-08T08:29:15.234Z,9.60
2019-03-08T08:32:07.675Z,9.60
2019-03-08T08:34:53.564Z,9.70
2019-03-08T08:37:43.333Z,9.80
2019-03-08T08:40:38.549Z,9.90
2019-03-08T08:43:20.565Z,9.90
2019-03-08T08:46:08.590Z,10.00
2019-03-08T08:48:53.963Z,10.20
2019-03-08T08:51:45.894Z,10.40
2019-03-08T08:54:53.387Z,10.60
2019-03-08T08:57:42.862Z,10.80
2019-03-08T09:00:26.585Z,10.90
2019-03-08T09:03:14.225Z,11.10
2019-03-08T09:05:53.359Z,11.20
2019-03-08T09:08:49.075Z,11.30
2019-03-08T09:11:31.359Z,11.30
2019-03-08T09:14:16.346Z,11.40
2019-03-08T09:17:05.613Z,11.60
2019-03-08T09:19:59.350Z,11.80
2019-03-08T09:22:51.213Z,11.80
2019-03-08T09:25:46.419Z,12.00
2019-03-08T09:28:34.960Z,12.10
2019-03-08T09:31:24.988Z,12.20
2019-03-08T09:34:03.166Z,12.30
2019-03-08T09:36:51.304Z,12.40
2019-03-08T09:39:49.485Z,12.50
2019-03-08T09:42:44.892Z,12.60
2019-03-08T09:45:23.626Z,12.60
2019-03-08T09:48:07.557Z,12.70
2019-03-08T09:50:50.171Z,12.90
2019-03-08T09:53:45.887Z,13.00
2019-03-08T09:56:33.619Z,13.20
2019-03-08T09:59:17.561Z,13.40
2019-03-08T10:02:01.712Z,13.50
2019-03-08T10:04:47.599Z,13.60
2019-03-08T10:07:38.843Z,13.70
2019-03-08T10:10:30.740Z,13.80
2019-03-08T10:13:26.766Z,13.80
2019-03-08T10:16:02.926Z,13.90
2019-03-08T10:18:55.986Z,14.00
2019-03-08T10:21:45.147Z,14.10
2019-03-08T10:24:30.526Z,14.20
2019-03-08T10:27:19.689Z,14.40
2019-03-08T10:30:14.997Z,14.40
2019-03-08T10:33:04.265Z,14.50
2019-03-08T10:35:44.408Z,14.60
2019-03-08T10:38:33.586Z,14.70
2019-03-08T10:41:26.539Z,14.70
2019-03-08T10:44:24.716Z,14.90
2019-03-08T10:47:31.100Z,15.10
2019-03-08T10:50:25.983Z,15.10
2019-03-08T10:53:18.220Z,15.20
2019-03-08T10:55:56.677Z,15.20
2019-03-08T10:58:44.878Z,15.10
2019-03-08T11:01:33.837Z,15.20
2019-03-08T11:04:29.147Z,15.60
2019-03-08T11:07:18.334Z,15.80
2019-03-08T11:10:06.561Z,15.90
2019-03-08T11:12:49.883Z,16.00
2019-03-08T11:15:57.175Z,15.80
2019-03-08T11:18:50.336Z,15.70
2019-03-08T11:21:39.497Z,15.90
2019-03-08T11:24:28.766Z,16.00
2019-03-08T11:27:16.805Z,16.10
2019-03-08T11:30:04.638Z,16.30
2019-03-08T11:32:46.383Z,16.10
2019-03-08T11:35:36.700Z,16.00
2019-03-08T11:38:14.281Z,16.70
2019-03-08T11:41:12.960Z,17.00
2019-03-08T11:44:03.193Z,17.50
2019-03-08T11:46:57.362Z,18.20
2019-03-08T11:49:52.380Z,18.30
2019-03-08T11:52:50.656Z,18.30
2019-03-08T11:55:38.491Z,18.60
2019-03-08T11:58:26.532Z,19.00
2019-03-08T12:01:17.292Z,19.40
2019-03-08T12:04:08.034Z,20.00
2019-03-08T12:06:45.787Z,20.00
2019-03-08T12:09:32.336Z,19.90
2019-03-08T12:12:40.239Z,19.90
2019-03-08T12:15:32.898Z,20.10
2019-03-08T12:18:28.299Z,19.60
2019-03-08T12:21:17.157Z,19.80
2019-03-08T12:24:04.583Z,20.20
2019-03-08T12:27:04.688Z,19.50
2019-03-08T12:29:52.435Z,19.70
2019-03-08T12:32:36.985Z,20.70
2019-03-08T12:35:32.200Z,20.30
2019-03-08T12:38:14.975Z,20.70
2019-03-08T12:40:53.939Z,20.60
2019-03-08T12:43:56.928Z,20.30
2019-03-08T12:46:44.866Z,20.30
2019-03-08T12:49:32.907Z,21.20
2019-03-08T12:52:10.394Z,21.30
2019-03-08T12:55:14.920Z,21.60
2019-03-08T12:57:55.484Z,21.00
2019-03-08T13:00:35.823Z,21.30
2019-03-08T13:03:32.856Z,21.70
2019-03-08T13:06:20.207Z,21.40
2019-03-08T13:08:56.995Z,21.00
2019-03-08T13:11:33.276Z,21.40
2019-03-08T13:13:59.318Z,21.40
2019-03-08T13:16:29.761Z,21.60
2019-03-08T13:18:59.979Z,22.50
2019-03-08T13:21:30.189Z,22.80
2019-03-08T13:24:01.270Z,22.00
2019-03-08T13:26:31.804Z,21.30
2019-03-08T13:29:01.977Z,23.10
2019-03-08T13:31:32.255Z,23.60
2019-03-08T13:34:02.518Z,24.00
2019-03-08T13:36:32.731Z,25.30
2019-03-08T13:39:03.382Z,25.60
2019-03-08T13:41:48.398Z,25.70
2019-03-08T13:44:20.150Z,24.30
2019-03-08T13:46:50.279Z,24.90
2019-03-08T13:49:20.850Z,25.30
2019-03-08T13:51:50.869Z,25.90
2019-03-08T13:54:21.214Z,25.20
2019-03-08T13:56:51.791Z,23.40
2019-03-08T13:59:24.622Z,20.60
2019-03-08T14:02:01.887Z,21.10
2019-03-08T14:04:32.870Z,22.50
2019-03-08T14:07:03.873Z,23.10
2019-03-08T14:09:34.190Z,22.20
2019-03-08T14:12:04.356Z,22.90
2019-03-08T14:14:34.830Z,23.30
2019-03-08T14:17:15.334Z,24.30
2019-03-08T14:19:47.738Z,24.10
2019-03-08T14:22:19.637Z,22.50
2019-03-08T14:24:53.644Z,22.30
2019-03-08T14:27:24.704Z,21.90
2019-03-08T14:29:55.221Z,21.30
2019-03-08T14:32:26.953Z,22.80
2019-03-08T14:34:57.346Z,23.10
2019-03-08T14:37:27.871Z,23.40
2019-03-08T14:39:58.201Z,23.60
2019-03-08T14:42:49.091Z,22.40
2019-03-08T14:45:28.026Z,24.10
2019-03-08T14:47:59.719Z,24.50
2019-03-08T14:50:31.866Z,24.00
2019-03-08T14:53:01.845Z,23.00
2019-03-08T14:55:32.172Z,23.50
2019-03-08T14:58:02.398Z,25.10
2019-03-08T15:00:32.710Z,25.40
2019-03-08T15:03:07.047Z,25.30
2019-03-08T15:05:37.247Z,24.00
2019-03-08T15:08:07.522Z,24.90
2019-03-08T15:10:39.736Z,23.50
2019-03-08T15:13:11.330Z,24.80
2019-03-08T15:15:41.537Z,24.60
2019-03-08T15:18:11.801Z,24.70
2019-03-08T15:20:41.979Z,25.60
2019-03-08T15:23:13.449Z,24.00
2019-03-08T15:25:49.058Z,23.70
2019-03-08T15:28:17.655Z,25.00
2019-03-08T15:30:48.015Z,24.90
2019-03-08T15:33:19.318Z,26.10
2019-03-08T15:35:49.499Z,24.60
2019-03-08T15:38:19.755Z,25.50
2019-03-08T15:40:51.876Z,25.00
2019-03-08T15:43:31.484Z,25.30
2019-03-08T15:46:04.043Z,26.20
2019-03-08T15:48:39.987Z,27.50
2019-03-08T15:51:12.096Z,27.80
2019-03-08T15:53:43.537Z,25.10
2019-03-08T15:56:14.897Z,23.90
2019-03-08T15:58:45.191Z,24.60
2019-03-08T16:01:20.100Z,24.80
2019-03-08T16:03:47.899Z,25.60
2019-03-08T16:06:19.856Z,25.80
2019-03-08T16:08:50.861Z,25.40
2019-03-08T16:11:31.374Z,25.80
2019-03-08T16:14:08.758Z,25.80
2019-03-08T16:16:36.648Z,24.20
2019-03-08T16:19:06.920Z,23.70
2019-03-08T16:21:38.562Z,22.60
2019-03-08T16:24:14.867Z,22.30
2019-03-08T16:26:49.687Z,22.20
2019-03-08T16:29:29.028Z,23.70
2019-03-08T16:32:07.602Z,24.70
2019-03-08T16:34:37.463Z,25.30
2019-03-08T16:37:27.015Z,25.60
2019-03-08T16:40:26.530Z,25.50
2019-03-08T16:43:16.848Z,25.60
2019-03-08T16:46:31.175Z,25.70
2019-03-08T16:49:18.784Z,23.60
2019-03-08T16:52:25.779Z,23.50
2019-03-08T16:55:13.816Z,22.90
2019-03-08T16:58:09.431Z,22.60
2019-03-08T17:01:08.225Z,21.50
2019-03-08T17:04:05.067Z,20.70
2019-03-08T17:06:50.139Z,20.30
2019-03-08T17:09:40.019Z,19.50
2019-03-08T17:12:49.154Z,18.60
2019-03-08T17:15:44.973Z,17.70
2019-03-08T17:18:29.339Z,16.90
2019-03-08T17:21:31.494Z,16.10
2019-03-08T17:24:11.281Z,15.40
2019-03-08T17:26:57.435Z,14.90
2019-03-08T17:29:47.316Z,14.50
2019-03-08T17:32:39.349Z,14.30
2019-03-08T17:35:37.627Z,14.10
2019-03-08T17:38:25.668Z,13.90
2019-03-08T17:41:26.914Z,13.70
2019-03-08T17:44:19.254Z,13.60
2019-03-08T17:46:57.657Z,13.40
2019-03-08T17:49:45.399Z,13.30
2019-03-08T17:52:41.731Z,13.10
2019-03-08T17:55:30.590Z,13.00
2019-03-08T17:58:22.738Z,12.70
2019-03-08T18:01:10.557Z,12.60
2019-03-08T18:04:12.282Z,12.40
2019-03-08T18:06:53.994Z,12.40
2019-03-08T18:09:34.469Z,12.30
2019-03-08T18:12:23.428Z,12.10
2019-03-08T18:15:16.486Z,12.00
2019-03-08T18:17:58.585Z,11.80
2019-03-08T18:20:50.514Z,11.80
2019-03-08T18:23:39.782Z,11.80
2019-03-08T18:26:31.612Z,11.70
2019-03-08T18:29:29.789Z,11.60
2019-03-08T18:32:14.245Z,11.50
2019-03-08T18:35:09.550Z,11.40
2019-03-08T18:38:17.249Z,11.20
2019-03-08T18:41:12.405Z,11.10
2019-03-08T18:44:00.496Z,11.00
2019-03-08T18:46:48.541Z,11.00
2019-03-08T18:49:40.205Z,10.90
2019-03-08T18:52:18.138Z,10.80
2019-03-08T18:55:07.322Z,10.70
2019-03-08T18:58:06.422Z,10.50
2019-03-08T19:00:57.431Z,10.40
2019-03-08T19:03:59.194Z,10.30
2019-03-08T19:06:37.706Z,10.20
2019-03-08T19:09:27.791Z,10.10
2019-03-08T19:12:09.987Z,9.90
2019-03-08T19:14:53.005Z,9.90
2019-03-08T19:17:49.859Z,9.80
2019-03-08T19:20:40.758Z,9.80
2019-03-08T19:23:19.896Z,9.80
2019-03-08T19:26:15.327Z,9.70
2019-03-08T19:28:54.744Z,9.70
2019-03-08T19:31:43.909Z,9.70
2019-03-08T19:34:24.974Z,9.60
2019-03-08T19:37:17.222Z,9.50
2019-03-08T19:40:05.262Z,9.30
2019-03-08T19:42:54.220Z,9.20
2019-03-08T19:45:50.245Z,9.20
2019-03-08T19:48:37.678Z,9.10
2019-03-08T19:51:20.385Z,9.00
2019-03-08T19:53:56.237Z,9.00
2019-03-08T19:57:00.564Z,9.00
2019-03-08T19:59:58.110Z,8.90
2019-03-08T20:02:41.970Z,8.80
2019-03-08T20:05:18.634Z,8.80
2019-03-08T20:08:07.490Z,8.80
2019-03-08T20:10:57.066Z,8.80
2019-03-08T20:13:49.507Z,8.70
2019-03-08T20:16:37.341Z,8.80
2019-03-08T20:19:25.891Z,8.80
2019-03-08T20:22:21.199Z,8.70
2019-03-08T20:25:29.105Z,8.60
2019-03-08T20:28:08.622Z,8.50
2019-03-08T20:30:48.386Z,8.40
2019-03-08T20:33:36.530Z,8.40
2019-03-08T20:36:44.841Z,8.30
2019-03-08T20:39:39.170Z,8.30
2019-03-08T20:42:34.436Z,8.20
2019-03-08T20:45:11.829Z,8.20
2019-03-08T20:47:42.077Z,8.30
2019-03-08T20:50:12.566Z,8.30
2019-03-08T20:52:42.917Z,8.20
2019-03-08T20:55:13.446Z,8.10
2019-03-08T20:57:43.641Z,8.10
2019-03-08T21:00:14.750Z,8.00
2019-03-08T21:02:45.000Z,8.00
2019-03-08T21:05:15.334Z,8.10
2019-03-08T21:07:45.664Z,8.20
2019-03-08T21:10:15.978Z,8.30
2019-03-08T21:12:46.554Z,8.40
2019-03-08T21:15:24.927Z,8.40
2019-03-08T21:17:48.899Z,8.50
2019-03-08T21:20:18.997Z,8.40
2019-03-08T21:22:49.241Z,8.30
2019-03-08T21:25:19.586Z,8.10
2019-03-08T21:27:49.871Z,8.10
2019-03-08T21:30:20.346Z,8.10
2019-03-08T21:32:50.575Z,8.00
2019-03-08T21:35:20.893Z,8.10
2019-03-08T21:37:51.382Z,8.10
2019-03-08T21:40:21.596Z,8.00
2019-03-08T21:42:51.867Z,7.90
2019-03-08T21:45:22.394Z,7.80
2019-03-08T21:47:52.676Z,7.70
2019-03-08T21:50:23.009Z,7.60
2019-03-08T21:52:53.326Z,7.50
2019-03-08T21:55:23.576Z,7.50
2019-03-08T21:57:53.868Z,7.40
2019-03-08T22:00:24.606Z,7.30
2019-03-08T22:02:54.810Z,7.20
2019-03-08T22:05:27.910Z,7.10
2019-03-08T22:07:58.180Z,7.10
2019-03-08T22:10:49.227Z,7.10
2019-03-08T22:13:19.550Z,7.00
2019-03-08T22:15:49.548Z,7.10
2019-03-08T22:18:19.639Z,7.10
2019-03-08T22:20:50.214Z,7.00
2019-03-08T22:23:20.480Z,7.00
2019-03-08T22:25:50.651Z,6.90
2019-03-08T22:28:20.957Z,6.80
2019-03-08T22:30:51.143Z,6.60
2019-03-08T22:33:21.572Z,6.50
2019-03-08T22:35:51.732Z,6.30
2019-03-08T22:38:23.405Z,6.20
2019-03-08T22:40:54.532Z,6.40
2019-03-08T22:43:24.786Z,6.30
2019-03-08T22:45:55.146Z,6.10
2019-03-08T22:48:25.425Z,6.00
2019-03-08T22:50:55.687Z,5.90
2019-03-08T22:53:25.913Z,5.80
2019-03-08T22:55:56.233Z,5.60
2019-03-08T22:58:26.527Z,5.50
2019-03-08T23:01:16.284Z,5.40
2019-03-08T23:03:46.624Z,5.50
2019-03-08T23:06:17.143Z,5.70
2019-03-08T23:08:47.343Z,5.80
2019-03-08T23:11:17.465Z,5.90
2019-03-08T23:13:47.644Z,5.80
2019-03-08T23:16:17.650Z,5.70
2019-03-08T23:18:47.937Z,5.60
2019-03-08T23:21:18.208Z,5.60
2019-03-08T23:23:48.289Z,5.60
2019-03-08T23:26:18.530Z,5.60
2019-03-08T23:28:55.997Z,5.60
2019-03-08T23:31:54.275Z,5.60
2019-03-08T23:34:24.375Z,5.70
2019-03-08T23:36:54.558Z,5.70
2019-03-08T23:39:24.836Z,5.60
2019-03-08T23:41:56.024Z,5.50
2019-03-08T23:44:26.346Z,5.50
2019-03-08T23:46:56.731Z,5.40
2019-03-08T23:49:27.017Z,5.30
2019-03-08T23:51:57.155Z,5.30
2019-03-08T23:54:27.478Z,5.30
2019-03-08T23:56:57.690Z,5.20
2019-03-08T23:59:27.839Z,5.20
